Riviere-Saint-Jean, Canada
Current Conditions -  °F | °C
As of 6:00 PM on Sunday 21 Dec 2014 (Local Time) from CYGV Reporting Station
Clear Clear  
Wind Chill:   Ceiling: Unl
Heat Index: 14°   Visibility: 9mi
Dew Point: 12°   Wind: 5mph
Humidity: 93%   Direction: 340°NNW
Pressure: 30.38"   Gusts: NA
Location:  50.28°N, 64.33°W
Report Text: CYGV 212300Z AUTO 34004KT 9SM CLR M10/M11 A3038 RMK SLP291
Loading
Personal Weather Stations






























Interactive Weather Map New forecast layout! Learn more

10-Day Weather Forecast

Advertisements
Track Severe Weather on mobile